FW7812 Weather Reports


time (UTC)temp
C
wind
direction
speed
KPH
gust
KPH
rain 1hr
cm
rain 24hr
cm
rain mn
cm
humidity
%
barometer
mb
20260506135431 18 45 1.6 3.2 0.00 0.00 0.00 82 1015.4
20260506134927 18 45 0.0 1.6 0.00 0.00 0.00 82 1015.3
20260506134423 18 45 1.6 3.2 0.00 0.00 0.00 82 1015.3
20260506133920 18 45 0.0 3.2 0.00 0.00 0.00 82 1015.6
20260506133417 18 45 1.6 3.2 0.00 0.00 0.00 83 1015.5
20260506132914 18 45 1.6 3.2 0.00 0.00 0.00 82 1015.3
20260506132411 18 45 0.0 1.6 0.00 0.00 0.00 82 1015.2
20260506131909 18 45 0.0 1.6 0.00 0.00 0.00 81 1015.1
20260506131405 18 45 0.0 1.6 0.00 0.00 0.00 81 1014.8
20260506130902 18 45 0.0 1.6 0.00 0.00 0.00 81 1014.5
20260506130358 17 45 0.0 0.0 0.00 0.00 0.00 81 1014.8
20260506125857 17 45 1.6 1.6 0.00 0.00 0.00 80 1014.8
20260506125355 17 45 1.6 1.6 0.00 0.00 0.00 81 1014.8
20260506124853 17 45 1.6 1.6 0.00 0.00 0.00 82 1014.5
20260506124349 17 45 1.6 1.6 0.00 0.00 0.00 81 1014.6
20260506123847 17 45 0.0 1.6 0.00 0.00 0.00 82 1014.8
20260506123345 17 45 0.0 1.6 0.00 0.00 0.00 82 1015.0
20260506122842 17 45 0.0 0.0 0.00 0.00 0.00 82 1014.9
20260506122339 17 45 0.0 1.6 0.00 0.00 0.00 83 1014.9
20260506121837 17 45 0.0 0.0 0.00 0.00 0.00 82 1014.9
20260506121334 17 45 0.0 0.0 0.00 0.00 0.00 81 1014.8
20260506120831 17 45 0.0 1.6 0.00 0.00 0.00 79 1015.0
20260506120329 17 45 0.0 1.6 0.00 0.00 0.00 77 1015.4
20260506115826 18 45 1.6 1.6 0.00 0.00 0.00 77 1014.9
20260506115324 18 45 0.0 0.0 0.00 0.00 0.00 77 1014.9
20260506114822 18 45 0.0 1.6 0.00 0.00 0.00 77 1014.5
20260506114319 17 45 0.0 1.6 0.00 0.00 0.00 77 1015.2
20260506113818 17 45 0.0 1.6 0.00 0.00 0.00 76 1014.9
20260506113315 18 45 0.0 0.0 0.00 0.00 0.00 76 1014.6
20260506112811 18 45 0.0 0.0 0.00 0.00 0.00 75 1014.5
20260506112309 18 45 0.0 1.6 0.00 0.00 0.00 75 1014.3
20260506111806 18 45 0.0 1.6 0.00 0.00 0.00 75 1014.4
20260506111304 18 45 0.0 1.6 0.00 0.00 0.00 74 1014.1
20260506110801 18 45 0.0 1.6 0.00 0.00 0.00 74 1014.1
20260506110258 18 45 0.0 0.0 0.00 0.00 0.00 73 1013.9
20260506105754 18 45 1.6 1.6 0.00 0.00 0.00 73 1013.9
20260506105252 18 45 0.0 1.6 0.00 0.00 0.00 72 1014.2
20260506104749 18 45 0.0 0.0 0.00 0.00 0.00 73 1014.3
20260506104247 18 45 0.0 0.0 0.00 0.00 0.00 73 1014.4
20260506103744 18 45 0.0 0.0 0.00 0.00 0.00 72 1014.5
20260506103241 18 45 0.0 0.0 0.00 0.00 0.00 72 1014.4
20260506102739 18 45 0.0 0.0 0.00 0.00 0.00 72 1014.5
20260506102237 18 45 0.0 0.0 0.00 0.00 0.00 72 1014.3
20260506101733 18 45 0.0 0.0 0.00 0.00 0.00 71 1014.1
20260506101230 18 45 0.0 1.6 0.00 0.00 0.00 69 1014.0
20260506100728 18 45 1.6 1.6 0.00 0.00 0.00 69 1014.0
20260506100226 18 45 1.6 1.6 0.00 0.00 0.00 69 1013.9
20260506095724 18 45 1.6 4.8 0.00 0.00 0.00 69 1013.8
20260506095220 18 58 0.0 1.6 0.00 0.00 0.00 70 1013.8
20260506094717 18 345 1.6 4.8 0.00 0.00 0.00 73 1013.7
20260506094215 18 344 1.6 3.2 0.00 0.00 0.00 72 1013.4
20260506093714 18 343 3.2 3.2 0.00 0.00 0.00 72 1013.5
20260506093210 18 343 0.0 1.6 0.00 0.00 0.00 72 1013.5
20260506092708 18 68 1.6 1.6 0.00 0.00 0.00 72 1013.3
20260506092206 18 68 0.0 1.6 0.00 0.00 0.00 72 1012.9
20260506091703 18 68 1.6 3.2 0.00 0.00 0.00 72 1013.2
20260506091201 18 69 0.0 1.6 0.00 0.00 0.00 72 1013.1
20260506090658 18 354 0.0 1.6 0.00 0.00 0.00 72 1012.9
20260506090155 18 354 1.6 1.6 0.00 0.00 0.00 71 1013.1
20260506085652 18 354 1.6 1.6 0.00 0.00 0.00 71 1013.2
20260506085148 18 354 0.0 1.6 0.00 0.00 0.00 70 1013.1
20260506084645 18 11 3.2 3.2 0.00 0.00 0.00 70 1013.4
20260506084141 18 6 0.0 4.8 0.00 0.00 0.00 70 1012.9
20260506083638 18 91 0.0 3.2 0.00 0.00 0.00 70 1013.2
20260506083136 18 91 0.0 1.6 0.00 0.00 0.00 70 1012.9
20260506082632 18 92 0.0 4.8 0.00 0.00 0.00 70 1013.4
20260506082128 18 92 3.2 4.8 0.00 0.00 0.00 70 1012.8
20260506081626 18 92 3.2 4.8 0.00 0.00 0.00 71 1012.9
20260506081124 18 98 1.6 1.6 0.00 0.00 0.00 70 1013.2
20260506080621 18 97 3.2 3.2 0.00 0.00 0.00 70 1012.9
20260506080118 18 4 1.6 3.2 0.00 0.00 0.00 69 1013.1
20260506073102 19 1 1.6 1.6 0.00 0.00 0.00 68 1013.8
20260506072558 19 1 1.6 3.2 0.00 0.00 0.00 67 1013.6
20260506072056 19 1 1.6 4.8 0.00 0.00 0.00 67 1013.6
20260506071554 19 83 0.0 3.2 0.00 0.00 0.00 67 1013.5
20260506071051 19 86 1.6 3.2 0.00 0.00 0.00 66 1013.6
20260506070548 19 300 4.8 11.3 0.00 0.00 0.00 67 1013.4
20260506062022 20 50 0.0 4.8 0.00 0.00 0.00 62 1013.8
20260506061518 20 97 3.2 3.2 0.00 0.00 0.00 61 1014.0
20260506061016 20 16 1.6 4.8 0.00 0.00 0.00 60 1014.2
20260506060514 20 16 1.6 4.8 0.00 0.00 0.00 60 1014.3
20260506050943 20 69 0.0 3.2 0.00 0.00 0.00 53 1014.4
20260506050441 20 69 0.0 1.6 0.00 0.00 0.00 53 1014.4
20260506044931 20 69 1.6 3.2 0.00 0.00 0.00 53 1014.3
20260506044430 20 69 0.0 1.6 0.00 0.00 0.00 53 1014.3
20260506043926 20 69 0.0 4.8 0.00 0.00 0.00 52 1014.6
20260506043423 20 69 1.6 1.6 0.00 0.00 0.00 52 1014.6
20260506042921 20 69 0.0 4.8 0.00 0.00 0.00 52 1014.6
20260506042420 20 69 0.0 1.6 0.00 0.00 0.00 51 1014.5
20260506041918 20 69 1.6 1.6 0.00 0.00 0.00 51 1014.3
20260506041415 20 69 3.2 3.2 0.00 0.00 0.00 50 1014.4
20260506040912 20 66 0.0 1.6 0.00 0.00 0.00 50 1014.2
20260506040410 20 66 0.0 1.6 0.00 0.00 0.00 50 1014.1
20260506035905 20 66 0.0 1.6 0.00 0.00 0.00 50 1014.1
20260506035403 20 66 1.6 3.2 0.00 0.00 0.00 50 1014.2
20260506034900 20 66 0.0 4.8 0.00 0.00 0.00 49 1014.4
20260506034358 20 66 3.2 3.2 0.00 0.00 0.00 49 1014.5
20260506033854 20 66 3.2 4.8 0.00 0.00 0.00 49 1014.5
20260506033351 20 66 1.6 1.6 0.00 0.00 0.00 49 1014.8
20260506032848 20 66 3.2 3.2 0.00 0.00 0.00 48 1014.5
20260506032345 20 67 3.2 4.8 0.00 0.00 0.00 48 1014.9
20260506031842 20 71 0.0 3.2 0.00 0.00 0.00 49 1014.4
20260506031339 20 2 1.6 3.2 0.00 0.00 0.00 49 1014.4
20260506030837 20 77 4.8 4.8 0.00 0.00 0.00 49 1014.5
20260506030335 20 77 1.6 3.2 0.00 0.00 0.00 49 1014.4
20260506025831 20 77 0.0 1.6 0.00 0.00 0.00 49 1014.5
20260506025327 20 77 0.0 1.6 0.00 0.00 0.00 49 1014.5
20260506024825 20 77 1.6 3.2 0.00 0.00 0.00 48 1014.5
20260506024321 20 17 1.6 4.8 0.00 0.00 0.00 48 1014.4
20260506023817 20 2 1.6 3.2 0.00 0.00 0.00 48 1014.4
20260506023314 20 102 1.6 3.2 0.00 0.00 0.00 48 1014.2
20260506022811 20 51 0.0 4.8 0.00 0.00 0.00 48 1014.3
20260506022309 20 104 0.0 1.6 0.00 0.00 0.00 49 1014.2
20260506021807 20 104 1.6 3.2 0.00 0.00 0.00 49 1014.4
20260506021303 20 105 0.0 3.2 0.00 0.00 0.00 49 1014.0
20260506020800 20 106 0.0 3.2 0.00 0.00 0.00 50 1014.2
20260506020258 20 106 0.0 1.6 0.00 0.00 0.00 50 1014.4
20260506015756 20 106 0.0 1.6 0.00 0.00 0.00 50 1014.4
20260506015253 19 340 0.0 1.6 0.00 0.00 0.00 50 1014.3
20260506014749 19 112 1.6 1.6 0.00 0.00 0.00 51 1014.3
20260506014246 19 112 1.6 1.6 0.00 0.00 0.00 51 1014.1
20260506013743 19 112 1.6 4.8 0.00 0.00 0.00 51 1013.9
20260506013240 18 112 0.0 4.8 0.00 0.00 0.00 52 1014.1
20260506012737 18 112 0.0 1.6 0.00 0.00 0.00 53 1014.0
20260506012234 18 112 0.0 1.6 0.00 0.00 0.00 53 1013.9
20260506011731 18 112 0.0 1.6 0.00 0.00 0.00 54 1013.9
20260506011227 18 112 0.0 1.6 0.00 0.00 0.00 54 1013.7
20260506010726 18 112 0.0 1.6 0.00 0.00 0.00 59 1013.8
20260506010222 18 112 0.0 0.0 0.00 0.00 0.00 57 1014.0
20260506005720 19 112 0.0 1.6 0.00 0.00 0.00 51 1014.2
20260506005216 19 112 0.0 1.6 0.00 0.00 0.00 50 1014.0
20260506004712 20 112 0.0 1.6 0.00 0.00 0.00 49 1014.1
20260506004210 20 112 0.0 0.0 0.00 0.00 0.00 49 1013.9
20260506003706 20 112 0.0 1.6 0.00 0.00 0.00 48 1014.1
20260506003202 20 112 0.0 0.0 0.00 0.00 0.00 48 1014.1
20260506002658 20 112 0.0 1.6 0.00 0.00 0.00 47 1014.4
20260506002155 20 112 0.0 0.0 0.00 0.00 0.00 46 1014.5
20260506001650 20 113 0.0 1.6 0.00 0.00 0.00 46 1014.3
20260506001148 20 112 3.2 4.8 0.00 0.00 0.00 46 1014.0
20260506000645 20 112 0.0 3.2 0.00 0.00 0.00 45 1014.1
20260506000142 20 124 0.0 3.2 0.00 0.00 0.00 45 1014.0
20260505235640 20 48 0.0 1.6 0.00 0.00 0.00 45 1013.9
20260505235138 20 48 3.2 3.2 0.00 0.00 0.00 45 1014.1
20260505234634 21 48 1.6 1.6 0.00 0.00 0.00 44 1013.8
20260505234131 21 66 3.2 4.8 0.00 0.00 0.00 44 1013.8
20260505233628 21 106 0.0 8.0 0.00 0.00 0.00 43 1013.9
20260505233126 21 58 1.6 1.6 0.00 0.00 0.00 44 1013.3
20260505232623 21 58 0.0 3.2 0.00 0.00 0.00 43 1013.6
20260505232120 21 67 0.0 1.6 0.00 0.00 0.00 43 1013.7
20260505231617 21 67 1.6 8.0 0.00 0.00 0.00 44 1013.8
20260505231116 21 106 0.0 3.2 0.00 0.00 0.00 43 1013.7
20260505230614 21 106 0.0 1.6 0.00 0.00 0.00 43 1013.9
20260505230109 21 106 0.0 0.0 0.00 0.00 0.00 43 1014.5
20260505225606 21 106 0.0 1.6 0.00 0.00 0.00 43 1014.4
20260505225102 21 106 1.6 1.6 0.00 0.00 0.00 43 1014.0
20260505224559 21 106 0.0 0.0 0.00 0.00 0.00 43 1014.3
20260505224057 21 106 0.0 1.6 0.00 0.00 0.00 43 1014.5
20260505223554 21 106 0.0 0.0 0.00 0.00 0.00 42 1014.5
20260505223050 21 106 0.0 0.0 0.00 0.00 0.00 42 1014.5
20260505222546 21 106 0.0 1.6 0.00 0.00 0.00 41 1014.8
20260505222043 21 102 3.2 3.2 0.00 0.00 0.00 40 1014.8
20260505221540 21 111 1.6 3.2 0.00 0.00 0.00 40 1014.6
20260505221036 21 111 1.6 3.2 0.00 0.00 0.00 39 1015.0
20260505220533 21 111 0.0 1.6 0.00 0.00 0.00 39 1014.6
20260505220031 22 111 0.0 1.6 0.00 0.00 0.00 38 1014.5
20260505215529 22 111 0.0 3.2 0.00 0.00 0.00 37 1014.3
20260505215027 22 246 3.2 4.8 0.00 0.00 0.00 37 1014.5
20260505214525 22 96 0.0 1.6 0.00 0.00 0.00 39 1014.2
20260505214021 22 235 4.8 4.8 0.00 0.00 0.00 39 1014.4
20260505213519 22 12 0.0 3.2 0.00 0.00 0.00 40 1014.3
20260505213015 22 304 1.6 8.0 0.00 0.00 0.00 40 1014.2
20260505212512 22 271 0.0 1.6 0.00 0.00 0.00 39 1014.1
20260505212009 22 234 3.2 3.2 0.00 0.00 0.00 38 1014.1
20260505211506 22 84 0.0 1.6 0.00 0.00 0.00 38 1014.2
20260505211003 22 81 0.0 3.2 0.00 0.00 0.00 37 1014.5
20260505210459 22 263 1.6 8.0 0.00 0.00 0.00 37 1014.2
20260505205956 22 118 1.6 1.6 0.00 0.00 0.00 40 1014.3
20260505205455 22 239 0.0 3.2 0.00 0.00 0.00 40 1014.2
20260505204951 22 239 0.0 3.2 0.00 0.00 0.00 40 1014.3
20260505204449 22 234 3.2 9.7 0.00 0.00 0.00 39 1014.3
20260505203946 22 194 1.6 11.3 0.00 0.00 0.00 39 1014.5
20260505203442 23 267 6.4 11.3 0.00 0.00 0.00 35 1014.5
20260505202938 23 313 6.4 9.7 0.00 0.00 0.00 38 1014.4
20260505202435 23 150 3.2 8.0 0.00 0.00 0.00 39 1014.4
20260505201931 23 81 3.2 4.8 0.00 0.00 0.00 39 1014.3
20260505201429 23 91 3.2 4.8 0.00 0.00 0.00 38 1014.0
20260505200927 23 90 1.6 8.0 0.00 0.00 0.00 37 1014.3
20260505200424 23 160 4.8 8.0 0.00 0.00 0.00 36 1014.4
20260505195919 23 233 1.6 8.0 0.00 0.00 0.00 35 1014.9
20260505195417 23 116 1.6 4.8 0.00 0.00 0.00 38 1014.8
20260505194914 23 291 3.2 8.0 0.00 0.00 0.00 38 1014.5
20260505194412 23 74 1.6 11.3 0.00 0.00 0.00 37 1014.8
20260505193911 23 115 3.2 3.2 0.00 0.00 0.00 39 1014.8
20260505193409 23 92 1.6 3.2 0.00 0.00 0.00 38 1014.9
20260505192907 23 176 3.2 4.8 0.00 0.00 0.00 39 1015.1
20260505192405 23 92 1.6 4.8 0.00 0.00 0.00 40 1014.9
20260505191902 24 108 3.2 3.2 0.00 0.00 0.00 37 1015.2
20260505191401 24 109 1.6 3.2 0.00 0.00 0.00 38 1015.0
20260505190857 23 109 0.0 1.6 0.00 0.00 0.00 40 1015.3
20260505190353 22 109 3.2 3.2 0.00 0.00 0.00 41 1015.4
20260505185848 22 99 1.6 3.2 0.00 0.00 0.00 42 1015.7
20260505185345 22 300 4.8 8.0 0.00 0.00 0.00 42 1015.8
20260505184841 22 80 3.2 3.2 0.00 0.00 0.00 41 1015.7
20260505184338 23 76 3.2 3.2 0.00 0.00 0.00 41 1015.3
20260505183835 23 121 4.8 8.0 0.00 0.00 0.00 41 1015.5
20260505183332 23 83 0.0 3.2 0.00 0.00 0.00 41 1015.6
20260505182829 22 83 3.2 4.8 0.00 0.00 0.00 42 1015.4
20260505182326 23 255 6.4 8.0 0.00 0.00 0.00 40 1015.6
20260505181822 23 25 1.6 3.2 0.00 0.00 0.00 38 1015.7
20260505181320 23 293 1.6 3.2 0.00 0.00 0.00 38 1015.9
20260505180816 23 329 0.0 1.6 0.00 0.00 0.00 38 1015.8
20260505180313 23 310 4.8 9.7 0.00 0.00 0.00 38 1016.1
20260505175809 23 117 0.0 4.8 0.00 0.00 0.00 38 1016.3
20260505175306 23 268 4.8 8.0 0.00 0.00 0.00 38 1016.4
20260505174802 23 275 1.6 3.2 0.00 0.00 0.00 37 1016.3
20260505174300 23 275 1.6 1.6 0.00 0.00 0.00 37 1016.2
20260505173755 22 277 4.8 4.8 0.00 0.00 0.00 37 1016.6
20260505173252 22 332 1.6 11.3 0.00 0.00 0.00 38 1016.7
20260505172749 22 162 4.8 8.0 0.00 0.00 0.00 36 1017.0
20260505172246 22 180 3.2 8.0 0.00 0.00 0.00 37 1016.9
20260505171746 21 210 1.6 4.8 0.00 0.00 0.00 36 1016.9
20260505171243 22 220 1.6 3.2 0.00 0.00 0.00 37 1017.0
20260505170740 22 191 4.8 4.8 0.00 0.00 0.00 38 1016.9
20260505170237 22 235 3.2 3.2 0.00 0.00 0.00 37 1017.0
20260505165732 21 26 0.0 0.0 0.00 0.00 0.00 36 1016.6
20260505165229 21 234 4.8 8.0 0.00 0.00 0.00 37 1016.6
20260505164724 22 104 3.2 3.2 0.00 0.00 0.00 35 1016.9
20260505164221 21 68 3.2 11.3 0.00 0.00 0.00 36 1016.7
20260505163720 21 256 3.2 4.8 0.00 0.00 0.00 36 1016.9
20260505163218 21 169 4.8 8.0 0.00 0.00 0.00 37 1017.1
20260505162715 21 108 3.2 3.2 0.00 0.00 0.00 36 1017.1
20260505162212 21 135 1.6 11.3 0.00 0.00 0.00 37 1016.9
20260505161709 21 266 6.4 11.3 0.00 0.00 0.00 35 1017.3
20260505161206 21 115 1.6 8.0 0.00 0.00 0.00 37 1017.1
20260505160704 21 96 3.2 8.0 0.00 0.00 0.00 39 1017.0
20260505160201 21 281 3.2 4.8 0.00 0.00 0.00 44 1017.2
20260505153140 20 203 3.2 11.3 0.00 0.00 0.00 44 1017.4
20260505152637 20 344 4.8 8.0 0.00 0.00 0.00 46 1017.2
20260505152133 20 97 3.2 3.2 0.00 0.00 0.00 46 1017.3
20260505151628 21 155 3.2 3.2 0.00 0.00 0.00 49 1017.2
20260505151126 20 179 0.0 4.8 0.00 0.00 0.00 50 1017.3
20260505150622 20 268 3.2 4.8 0.00 0.00 0.00 51 1017.4
20260505150119 20 237 1.6 4.8 0.00 0.00 0.00 51 1017.4
20260505140547 17 6 1.6 3.2 0.00 0.00 0.00 64 1017.1